Saturday, December 15, 2018, 2:05 PM GMT
Back to Local

CWIS, Charlevoix CS , Que.

Location: , , Canada Lat: 47.283
Local Time: 2:05 PM GMT (14:05 GMT) Lon: -70.633
Time Zone: GMT Elev: 2358 ft

Show me the last for .
Show Coded

Time T Td Feel RH Dir Speed Gust Alt SLP Vis Weather Sky Remarks
2018-12-15 13:00 28 26 20 91 260° 7 - - 30.00 0 None
2018-12-15 12:00 27 25 22 92 250° 5 - - 29.98 0 None
2018-12-15 11:00 27 26 23 94 260° 3 - - 29.96 0 None
2018-12-15 10:00 27 26 23 93 260° 3 - - 29.94 0 None
2018-12-15 09:00 29 26 26 87 260° 3 - - 29.94 0 None
2018-12-15 08:00 28 28 23 97 260° 5 - - 29.93 0 None
2018-12-15 07:00 29 28 16 98 250° 6 17 - 29.93 0 None
2018-12-15 06:00 28 28 21 98 250° 7 - - 29.91 0 None
2018-12-15 05:00 28 28 20 98 260° 8 - - 29.93 0 None
2018-12-15 04:00 28 29 20 106 250° 8 - - 29.94 0 None
2018-12-15 02:00 28 28 16 98 240° 9 18 - 30.00 0 None
2018-12-15 01:00 28 28 16 99 230° 8 18 - 30.03 0 Peak wind: 24 mph (21 kts) from 230° at 39 min
2018-12-15 00:00 29 28 16 99 230° 8 17 - 30.05 0 None
2018-12-14 23:00 28 28 20 99 220° 8 - - 30.07 0 None
2018-12-14 22:00 28 29 21 106 220° 7 - - 30.10 0 1-hr Precip Total: 0.02"
2018-12-14 21:00 27 26 18 98 200° 8 - - 30.11 0 None
2018-12-14 20:00 26 26 18 97 210° 8 - - 30.14 0 1-hr Precip Total: 0.03"
2018-12-14 19:00 28 25 19 91 220° 8 - - 30.16 0 None
2018-12-14 18:00 25 24 17 97 230° 7 - - 30.18 0 None
2018-12-14 17:00 25 24 17 97 230° 7 - - 30.21 0 None
2018-12-14 16:00 26 24 18 91 240° 7 - - 30.25 0 None
2018-12-14 15:00 24 26 19 105 240° 5 - - 30.29 0 None

Support USWX by starting your Amazon purchase here.